Airfield :







YOU CAN JOIN US ON...

 
LOGIN :

Register | Disclaimer

   EN    FR    IT 

 









Legend :    VFR   Marginal VFR   IFR   Intensive IFR   Very Intensive IFR
Visi :
Ceiling :
>= 8 km
>= 3000ft
5 to 8 km
1000 to 3000 ft
1500m to 5 km
500 to 1000 ft
800 to 1500m
200 to 500 ft
< 800m
< 200 ft
Symbols :   Thunderstorms  Fog  Heavy snow  Heavy precipitations  Wind > 20 kt






- Airport Elevation : 180 ft
- IATA code : YZV


CYZV - Sept-Iles

CURRENT METAR :
  • 290500Z 09012G20KT 3SM -RA BR OVC002 11/11 A2948 RMK SF8 SLP985

EXPIRED METARs :
  • 290400Z 09011G17KT 10SM -RA OVC002 12/12 A2948 RMK SF8 SLP985 DENSITY ALT 400FT
  • 290300Z 08011G17KT 15SM -RA BKN002 OVC011 12/12 A2949 RMK SF7SC1 SLP990 DENSITY ALT 400FT
  • 290241Z 10004KT 010V130 10SM -RA BKN002 OVC015 12/12 A2949 RMK SF7SC1 SLP991 DENSITY ALT 400FT
  • 290220Z 09009G21KT 1SM R09/P6000FT/N -RA BR VV002 12/12 A2949 RMK FG8 SLP988 DENSITY ALT 400FT
  • 290209Z 10011G19KT 2SM BR VV002 12/12 A2948 RMK FG8 SLP985 DENSITY ALT 400FT
  • 290200Z 09011G20KT 15SM OVC003 12/12 A2948 RMK SF8 SLP985 DENSITY ALT 400FT
  • 290100Z 08011G18KT 15SM OVC003 12/12 A2948 RMK SF8 SLP985 DENSITY ALT 400FT
  • 290036Z 07010G19KT 10SM OVC003 12/12 A2948 RMK SF8 SLP988 DENSITY ALT 400FT

TAF AMD TAF CYZV
Valid from the 29 at 03:00 until the 30 at 00:00 UTC


290302Z 2903/2924 08010KT 1SM BR OVC002
TEMPO 2903/2906 6SM -RA -DZ BR OVC012
FM290600 08005KT 1/2SM -DZ FG OVC002
PROB30 2906/2912 1/4SM FG VV001
FM291200 33008KT 6SM -RA SCT002 OVC010
FM291500 32015G25KT P6SM -SHRA OVC025
FM292000 31015G25KT P6SM BKN040
BECMG 2922/2924 31012KT RMK NXT FCST BY 290600Z
CZUL FIR / North America



MET'MAP, your aeronautical weather chart ! - Copyright ORBIFLY December 2007 - Disclaimer

ORBIFLY MET'MAP TEAM :

Programming & Development : Alexandra Zaïnal
Original concept : Baudouin d'Aumeries
Technical & hardware support : Manuel Goepfert
Assistance : Marc-Olivier Méhu




SOURCES & CREDITS :

   NOAA